Alexis, North Carolina
Current Conditions -  °F | °C
As of 6:15 PM on Wednesday 22 Oct 2014 (Local Time) from KIPJ Reporting Station
Clear Clear  
Wind Chill: 15°   Ceiling: Unl
Heat Index: 15°   Visibility: 10mi
Dew Point:   Wind: 7mph
Humidity: 45%   Direction: 320°NW
Pressure: 30.08"   Gusts: NA
Location:  35.4°N, 81.12°W
Report Text: KIPJ 222215Z AUTO 32006KT 10SM CLR 15/03 A3008 RMK AO2 T01450027
Loading
Personal Weather Stations






























Interactive Weather Map
Tropical Storm Tracking
New forecast layout! Learn more

10-Day Weather Forecast

Advertisements
Track Severe Weather on mobile